A Sesimbrense — CULL2 — position and weather

sailwx.info

Track history (hours):
 
Tides and Currents Weather Stations Pressure Air Temp Water Temp Dewpoint Dewpoint Depression Visibility Wind Speed Wind Dir Waves Ship Positions

A Sesimbrense

Last reported at 2017-Oct-20 15:41 UTC. Time now 2017-Oct-22 10:14 UTC.
Position N 38°26' W 009°07'.

Length 16 m.

Type: Fishing. MMSI: 263410370.

Date/timePositionNaut miles runAvg speedWind from/ knotsBaromVisibWave heightAir tempDewpointWater temp
2017-Oct-20 15:41N 38°26' W 009°07'0 0.0
2017-Oct-20 15:30N 38°26' W 009°07'0 0.0
2017-Oct-20 10:28N 38°26' W 009°07'0 0.0
2017-Oct-20 10:00N 38°26' W 009°07'0 0.0
2017-Oct-20 09:29N 38°26' W 009°07'0 0.0
2017-Oct-20 08:59N 38°26' W 009°07'0 0.0
2017-Oct-20 08:30N 38°26' W 009°07'1 1.3
2017-Oct-20 08:00N 38°26' W 009°06'4 8.2
2017-Oct-20 07:30N 38°25' W 009°01'4 8.4
2017-Oct-20 07:01N 38°24' W 008°56'1 1.7
2017-Oct-20 06:19N 38°23' W 008°54'0 0.3
2017-Oct-20 05:58N 38°23' W 008°54'0 0.4
2017-Oct-20 05:29N 38°23' W 008°54'0 0.3
2017-Oct-20 04:59N 38°23' W 008°54'2 3.1
2017-Oct-20 04:30N 38°23' W 008°52'2 3.8
2017-Oct-20 04:00N 38°22' W 008°50'13 2.3
2017-Oct-19 22:27N 38°09' W 008°49'3 6.5
2017-Oct-19 22:00N 38°12' W 008°48'3 6.4
2017-Oct-19 21:31N 38°15' W 008°48'3 5.6
2017-Oct-19 20:53N 38°19' W 008°50'3 8.0
2017-Oct-19 20:30N 38°20' W 008°54'4 7.8
2017-Oct-19 20:01N 38°22' W 008°58'4 7.6
2017-Oct-19 19:31N 38°24' W 009°02'4 7.7
2017-Oct-19 19:00N 38°26' W 009°06'1 1.1
2017-Oct-19 18:30N 38°26' W 009°07'0 0.0
2017-Oct-19 07:54N 38°26' W 009°07'0 0.0
2017-Oct-19 07:30N 38°26' W 009°07'3 6.1
2017-Oct-19 07:00N 38°26' W 009°03'4 8.5
2017-Oct-19 06:30N 38°25' W 008°58'2 3.0
2017-Oct-19 06:00N 38°25' W 008°56'1 1.2
2017-Oct-19 05:24N 38°24' W 008°55'1 2.3
2017-Oct-19 05:00N 38°23' W 008°55'0 0.4
2017-Oct-19 04:27N 38°23' W 008°54'0 0.4
2017-Oct-19 04:00N 38°23' W 008°54'0 0.5
2017-Oct-19 03:31N 38°23' W 008°54'0 0.4
2017-Oct-19 02:59N 38°23' W 008°54'3 6.5
2017-Oct-19 02:30N 38°20' W 008°55'4 7.7
2017-Oct-19 01:59N 38°23' W 008°60'4 7.7
2017-Oct-19 01:30N 38°25' W 009°04'3 5.9
2017-Oct-19 01:00N 38°26' W 009°07'0 0.0
2017-Oct-19 00:30N 38°26' W 009°07'0 0.0
2017-Oct-19 00:01N 38°26' W 009°07'0 0.0
2017-Oct-18 23:28N 38°26' W 009°07'0 0.0
2017-Oct-18 23:00N 38°26' W 009°07'0 0.0
2017-Oct-18 22:30N 38°26' W 009°07'0 0.0
2017-Oct-18 22:00N 38°26' W 009°07'0 0.0
2017-Oct-18 21:30N 38°26' W 009°07'0 0.0
2017-Oct-18 20:49N 38°26' W 009°07'0 0.0
2017-Oct-18 20:30N 38°26' W 009°07'0 0.0
2017-Oct-18 09:24N 38°26' W 009°07'0 0.0
2017-Oct-18 09:01N 38°26' W 009°07'0 0.0
2017-Oct-18 08:28N 38°26' W 009°07'0 0.0
2017-Oct-18 08:00N 38°26' W 009°07'0 0.1
2017-Oct-18 07:30N 38°26' W 009°07'0 0.6
2017-Oct-18 07:01N 38°26' W 009°06'5 7.8
2017-Oct-18 06:23N 38°24' W 009°12'3 6.8
2017-Oct-18 05:59N 38°27' W 009°14'4 7.9
2017-Oct-18 05:30N 38°30' W 009°14'2 4.4
2017-Oct-18 05:00N 38°33' W 009°14'0 0.6
2017-Oct-18 04:31N 38°32' W 009°14'1 2.8
2017-Oct-18 04:00N 38°34' W 009°14'0 0.2
2017-Oct-18 03:31N 38°34' W 009°14'0 0.0
2017-Oct-18 03:00N 38°34' W 009°14'0 0.0
2017-Oct-18 02:30N 38°34' W 009°14'0 0.0
2017-Oct-18 02:00N 38°34' W 009°14'0 0.0
2017-Oct-18 01:30N 38°34' W 009°14'0 0.0
2017-Oct-18 00:59N 38°34' W 009°14'0 0.0
2017-Oct-18 00:31N 38°34' W 009°14'0 0.1
2017-Oct-18 00:00N 38°34' W 009°14'0 0.3
2017-Oct-17 23:30N 38°34' W 009°15'1 2.3
2017-Oct-17 23:00N 38°33' W 009°14'4 7.2
2017-Oct-17 22:27N 38°29' W 009°14'4 7.9
2017-Oct-17 21:58N 38°25' W 009°14'4 7.2
2017-Oct-17 21:25N 38°25' W 009°09'2 5.1
2017-Oct-17 21:00N 38°26' W 009°07'0 0.0
2017-Oct-17 09:21N 38°26' W 009°07'0 0.0
2017-Oct-17 09:00N 38°26' W 009°07'0 0.4
2017-Oct-17 08:30N 38°26' W 009°07'0 0.0
2017-Oct-17 08:01N 38°26' W 009°07'0 0.0
2017-Oct-17 07:28N 38°26' W 009°07'0 0.0
2017-Oct-17 07:00N 38°26' W 009°07'0 0.2
2017-Oct-17 06:30N 38°26' W 009°07'1 1.1
2017-Oct-17 06:00N 38°26' W 009°06'4 8.3
2017-Oct-17 05:31N 38°23' W 009°02'4 8.2
2017-Oct-17 05:00N 38°21' W 008°58'4 8.1
2017-Oct-17 04:30N 38°19' W 008°54'4 8.1
2017-Oct-17 04:01N 38°17' W 008°49'1 2.2
2017-Oct-17 03:31N 38°16' W 008°48'0 0.3
2017-Oct-17 03:00N 38°16' W 008°49'0 0.4
2017-Oct-17 02:28N 38°15' W 008°49'0 0.3
2017-Oct-17 01:59N 38°15' W 008°49'0 0.2
2017-Oct-17 01:31N 38°15' W 008°49'0 0.2
2017-Oct-17 01:00N 38°15' W 008°49'1 2.8
2017-Oct-17 00:30N 38°16' W 008°48'2 1.3
2017-Oct-16 23:06N 38°17' W 008°50'0 0.8
2017-Oct-16 22:58N 38°17' W 008°50'0 0.9
2017-Oct-16 22:30N 38°17' W 008°50'0 0.6
2017-Oct-16 22:01N 38°16' W 008°50'2 2.8
2017-Oct-16 21:25N 38°18' W 008°50'3 6.6
2017-Oct-16 20:59N 38°20' W 008°53'4 8.0
2017-Oct-16 20:30N 38°22' W 008°57'9 7.9
2017-Oct-16 19:23N 38°26' W 009°07'0 0.1
2017-Oct-16 19:00N 38°26' W 009°07'0 0.1
2017-Oct-16 18:28N 38°26' W 009°07'0 0.0
2017-Oct-16 11:46N 38°26' W 009°07'0 0.0
2017-Oct-16 11:30N 38°26' W 009°07'0 0.0
2017-Oct-16 11:00N 38°26' W 009°07'0 0.1
2017-Oct-16 10:30N 38°26' W 009°07'0 0.0
2017-Oct-16 10:00N 38°26' W 009°07'0 0.0
2017-Oct-16 09:30N 38°26' W 009°07'0 0.5
2017-Oct-16 09:00N 38°26' W 009°06'5 8.4
2017-Oct-16 08:25N 38°23' W 009°01'5 8.7
2017-Oct-16 07:53N 38°20' W 008°57'3 8.5
2017-Oct-16 07:29N 38°18' W 008°54'4 8.3
2017-Oct-16 07:00N 38°16' W 008°49'1 1.0
2017-Oct-16 06:30N 38°16' W 008°49'0 0.2
2017-Oct-16 06:00N 38°16' W 008°49'0 0.2
2017-Oct-16 05:30N 38°16' W 008°49'0 0.2
2017-Oct-16 05:00N 38°16' W 008°49'1 1.0
2017-Oct-16 04:31N 38°15' W 008°49'1 2.9
2017-Oct-16 04:00N 38°14' W 008°49'2 3.9
2017-Oct-16 03:30N 38°12' W 008°49'0 0.2
2017-Oct-16 03:00N 38°12' W 008°49'0 0.4
2017-Oct-16 02:30N 38°11' W 008°49'0 0.4
2017-Oct-16 02:01N 38°12' W 008°48'4 7.5
2017-Oct-16 01:30N 38°15' W 008°49'6 7.9
2017-Oct-16 00:47N 38°21' W 008°50'2 8.1
2017-Oct-16 00:30N 38°22' W 008°53'4 8.1
2017-Oct-16 00:00N 38°23' W 008°58'4 7.5
2017-Oct-15 23:31N 38°24' W 009°02'4 7.6
2017-Oct-15 23:01N 38°26' W 009°06'0 0.6
2017-Oct-15 22:30N 38°26' W 009°07'  
2017-Oct-13 08:43N 38°26' W 009°07'1 2.9
2017-Oct-13 08:28N 38°26' W 009°06'4 8.4
2017-Oct-13 08:00N 38°26' W 009°01'4 5.3
2017-Oct-13 07:13N 38°25' W 008°56'0 0.3
2017-Oct-13 06:52N 38°25' W 008°55'0 0.3
2017-Oct-13 06:24N 38°25' W 008°55'0 0.2
2017-Oct-13 06:00N 38°25' W 008°55'0 0.2
2017-Oct-13 05:30N 38°25' W 008°55'2 3.8
2017-Oct-13 05:00N 38°25' W 008°58'4 7.8
2017-Oct-13 04:30N 38°26' W 009°02'3 6.9
2017-Oct-13 04:00N 38°26' W 009°07'0 0.0
2017-Oct-13 03:30N 38°26' W 009°07'0 0.0
2017-Oct-13 03:00N 38°26' W 009°07'0 0.0
2017-Oct-13 02:27N 38°26' W 009°07'0 0.0
2017-Oct-13 02:00N 38°26' W 009°07'0 0.0
2017-Oct-13 01:30N 38°26' W 009°07'0 0.0
2017-Oct-13 00:59N 38°26' W 009°07'0 0.0
2017-Oct-13 00:30N 38°26' W 009°07'3 5.0
2017-Oct-13 00:00N 38°25' W 009°10'7 1.6
2017-Oct-12 19:30N 38°29' W 009°18'4 8.2
2017-Oct-12 18:59N 38°25' W 009°14'4 7.8
2017-Oct-12 18:27N 38°25' W 009°09'2 5.1
2017-Oct-12 18:01N 38°26' W 009°07'0 0.0
2017-Oct-12 10:28N 38°26' W 009°07'0 0.0
2017-Oct-12 08:39N 38°26' W 009°07'0 0.9
2017-Oct-12 08:30N 38°26' W 009°07'4 8.5
2017-Oct-12 08:00N 38°24' W 009°02'4 8.6
2017-Oct-12 07:30N 38°22' W 008°57'5 8.6
2017-Oct-12 06:59N 38°20' W 008°52'3 5.1
2017-Oct-12 06:29N 38°18' W 008°50'0 0.4
2017-Oct-12 05:57N 38°18' W 008°50'0 0.0
2017-Oct-12 00:14N 38°18' W 008°50'1 4.1
2017-Oct-12 00:00N 38°19' W 008°51'1 1.3
2017-Oct-11 23:30N 38°19' W 008°50'0 0.5
2017-Oct-11 23:00N 38°19' W 008°50'0 0.5
2017-Oct-11 22:30N 38°19' W 008°50'2 4.0
2017-Oct-11 22:00N 38°17' W 008°50'2 3.8
2017-Oct-11 21:30N 38°19' W 008°50'4 7.6
2017-Oct-11 21:00N 38°20' W 008°55'8 8.1
2017-Oct-11 20:02N 38°24' W 009°03'0 8.0
2017-Oct-11 20:00N 38°24' W 009°03'3 6.4
2017-Oct-11 19:30N 38°26' W 009°07'2 0.1
2017-Oct-10 21:53N 38°26' W 009°04'2 6.6
2017-Oct-10 21:30N 38°26' W 009°07'0 0.1
2017-Oct-10 21:00N 38°26' W 009°07'  
Track history (hours):
 
Tides and Currents Weather Stations Pressure Air Temp Water Temp Dewpoint Dewpoint Depression Visibility Wind Speed Wind Dir Waves Ship Positions

A Sesimbrense

Last reported at 2017-Oct-20 15:41 UTC. Time now 2017-Oct-22 10:14 UTC.
Position N 38°26' W 009°07'.

Length 16 m.

Type: Fishing. MMSI: 263410370.

Date/timePositionNaut miles runAvg speedWind from/ knotsBaromVisibWave heightAir tempDewpointWater temp
2017-Oct-20 15:41N 38°26' W 009°07'0 0.0
2017-Oct-20 15:30N 38°26' W 009°07'0 0.0
2017-Oct-20 10:28N 38°26' W 009°07'0 0.0
2017-Oct-20 10:00N 38°26' W 009°07'0 0.0
2017-Oct-20 09:29N 38°26' W 009°07'0 0.0
2017-Oct-20 08:59N 38°26' W 009°07'0 0.0
2017-Oct-20 08:30N 38°26' W 009°07'1 1.3
2017-Oct-20 08:00N 38°26' W 009°06'4 8.2
2017-Oct-20 07:30N 38°25' W 009°01'4 8.4
2017-Oct-20 07:01N 38°24' W 008°56'1 1.7
2017-Oct-20 06:19N 38°23' W 008°54'0 0.3
2017-Oct-20 05:58N 38°23' W 008°54'0 0.4
2017-Oct-20 05:29N 38°23' W 008°54'0 0.3
2017-Oct-20 04:59N 38°23' W 008°54'2 3.1
2017-Oct-20 04:30N 38°23' W 008°52'2 3.8
2017-Oct-20 04:00N 38°22' W 008°50'13 2.3
2017-Oct-19 22:27N 38°09' W 008°49'3 6.5
2017-Oct-19 22:00N 38°12' W 008°48'3 6.4
2017-Oct-19 21:31N 38°15' W 008°48'3 5.6
2017-Oct-19 20:53N 38°19' W 008°50'3 8.0
2017-Oct-19 20:30N 38°20' W 008°54'4 7.8
2017-Oct-19 20:01N 38°22' W 008°58'4 7.6
2017-Oct-19 19:31N 38°24' W 009°02'4 7.7
2017-Oct-19 19:00N 38°26' W 009°06'1 1.1
2017-Oct-19 18:30N 38°26' W 009°07'0 0.0
2017-Oct-19 07:54N 38°26' W 009°07'0 0.0
2017-Oct-19 07:30N 38°26' W 009°07'3 6.1
2017-Oct-19 07:00N 38°26' W 009°03'4 8.5
2017-Oct-19 06:30N 38°25' W 008°58'2 3.0
2017-Oct-19 06:00N 38°25' W 008°56'1 1.2
2017-Oct-19 05:24N 38°24' W 008°55'1 2.3
2017-Oct-19 05:00N 38°23' W 008°55'0 0.4
2017-Oct-19 04:27N 38°23' W 008°54'0 0.4
2017-Oct-19 04:00N 38°23' W 008°54'0 0.5
2017-Oct-19 03:31N 38°23' W 008°54'0 0.4
2017-Oct-19 02:59N 38°23' W 008°54'3 6.5
2017-Oct-19 02:30N 38°20' W 008°55'4 7.7
2017-Oct-19 01:59N 38°23' W 008°60'4 7.7
2017-Oct-19 01:30N 38°25' W 009°04'3 5.9
2017-Oct-19 01:00N 38°26' W 009°07'0 0.0
2017-Oct-19 00:30N 38°26' W 009°07'0 0.0
2017-Oct-19 00:01N 38°26' W 009°07'0 0.0
2017-Oct-18 23:28N 38°26' W 009°07'0 0.0
2017-Oct-18 23:00N 38°26' W 009°07'0 0.0
2017-Oct-18 22:30N 38°26' W 009°07'0 0.0
2017-Oct-18 22:00N 38°26' W 009°07'0 0.0
2017-Oct-18 21:30N 38°26' W 009°07'0 0.0
2017-Oct-18 20:49N 38°26' W 009°07'0 0.0
2017-Oct-18 20:30N 38°26' W 009°07'0 0.0
2017-Oct-18 09:24N 38°26' W 009°07'0 0.0
2017-Oct-18 09:01N 38°26' W 009°07'0 0.0
2017-Oct-18 08:28N 38°26' W 009°07'0 0.0
2017-Oct-18 08:00N 38°26' W 009°07'0 0.1
2017-Oct-18 07:30N 38°26' W 009°07'0 0.6
2017-Oct-18 07:01N 38°26' W 009°06'5 7.8
2017-Oct-18 06:23N 38°24' W 009°12'3 6.8
2017-Oct-18 05:59N 38°27' W 009°14'4 7.9
2017-Oct-18 05:30N 38°30' W 009°14'2 4.4
2017-Oct-18 05:00N 38°33' W 009°14'0 0.6
2017-Oct-18 04:31N 38°32' W 009°14'1 2.8
2017-Oct-18 04:00N 38°34' W 009°14'0 0.2
2017-Oct-18 03:31N 38°34' W 009°14'0 0.0
2017-Oct-18 03:00N 38°34' W 009°14'0 0.0
2017-Oct-18 02:30N 38°34' W 009°14'0 0.0
2017-Oct-18 02:00N 38°34' W 009°14'0 0.0
2017-Oct-18 01:30N 38°34' W 009°14'0 0.0
2017-Oct-18 00:59N 38°34' W 009°14'0 0.0
2017-Oct-18 00:31N 38°34' W 009°14'0 0.1
2017-Oct-18 00:00N 38°34' W 009°14'0 0.3
2017-Oct-17 23:30N 38°34' W 009°15'1 2.3
2017-Oct-17 23:00N 38°33' W 009°14'4 7.2
2017-Oct-17 22:27N 38°29' W 009°14'4 7.9
2017-Oct-17 21:58N 38°25' W 009°14'4 7.2
2017-Oct-17 21:25N 38°25' W 009°09'2 5.1
2017-Oct-17 21:00N 38°26' W 009°07'0 0.0
2017-Oct-17 09:21N 38°26' W 009°07'0 0.0
2017-Oct-17 09:00N 38°26' W 009°07'0 0.4
2017-Oct-17 08:30N 38°26' W 009°07'0 0.0
2017-Oct-17 08:01N 38°26' W 009°07'0 0.0
2017-Oct-17 07:28N 38°26' W 009°07'0 0.0
2017-Oct-17 07:00N 38°26' W 009°07'0 0.2
2017-Oct-17 06:30N 38°26' W 009°07'1 1.1
2017-Oct-17 06:00N 38°26' W 009°06'4 8.3
2017-Oct-17 05:31N 38°23' W 009°02'4 8.2
2017-Oct-17 05:00N 38°21' W 008°58'4 8.1
2017-Oct-17 04:30N 38°19' W 008°54'4 8.1
2017-Oct-17 04:01N 38°17' W 008°49'1 2.2
2017-Oct-17 03:31N 38°16' W 008°48'0 0.3
2017-Oct-17 03:00N 38°16' W 008°49'0 0.4
2017-Oct-17 02:28N 38°15' W 008°49'0 0.3
2017-Oct-17 01:59N 38°15' W 008°49'0 0.2
2017-Oct-17 01:31N 38°15' W 008°49'0 0.2
2017-Oct-17 01:00N 38°15' W 008°49'1 2.8
2017-Oct-17 00:30N 38°16' W 008°48'2 1.3
2017-Oct-16 23:06N 38°17' W 008°50'0 0.8
2017-Oct-16 22:58N 38°17' W 008°50'0 0.9
2017-Oct-16 22:30N 38°17' W 008°50'0 0.6
2017-Oct-16 22:01N 38°16' W 008°50'2 2.8
2017-Oct-16 21:25N 38°18' W 008°50'3 6.6
2017-Oct-16 20:59N 38°20' W 008°53'4 8.0
2017-Oct-16 20:30N 38°22' W 008°57'9 7.9
2017-Oct-16 19:23N 38°26' W 009°07'0 0.1
2017-Oct-16 19:00N 38°26' W 009°07'0 0.1
2017-Oct-16 18:28N 38°26' W 009°07'0 0.0
2017-Oct-16 11:46N 38°26' W 009°07'0 0.0
2017-Oct-16 11:30N 38°26' W 009°07'0 0.0
2017-Oct-16 11:00N 38°26' W 009°07'0 0.1
2017-Oct-16 10:30N 38°26' W 009°07'0 0.0
2017-Oct-16 10:00N 38°26' W 009°07'0 0.0
2017-Oct-16 09:30N 38°26' W 009°07'0 0.5
2017-Oct-16 09:00N 38°26' W 009°06'5 8.4
2017-Oct-16 08:25N 38°23' W 009°01'5 8.7
2017-Oct-16 07:53N 38°20' W 008°57'3 8.5
2017-Oct-16 07:29N 38°18' W 008°54'4 8.3
2017-Oct-16 07:00N 38°16' W 008°49'1 1.0
2017-Oct-16 06:30N 38°16' W 008°49'0 0.2
2017-Oct-16 06:00N 38°16' W 008°49'0 0.2
2017-Oct-16 05:30N 38°16' W 008°49'0 0.2
2017-Oct-16 05:00N 38°16' W 008°49'1 1.0
2017-Oct-16 04:31N 38°15' W 008°49'1 2.9
2017-Oct-16 04:00N 38°14' W 008°49'2 3.9
2017-Oct-16 03:30N 38°12' W 008°49'0 0.2
2017-Oct-16 03:00N 38°12' W 008°49'0 0.4
2017-Oct-16 02:30N 38°11' W 008°49'0 0.4
2017-Oct-16 02:01N 38°12' W 008°48'4 7.5
2017-Oct-16 01:30N 38°15' W 008°49'6 7.9
2017-Oct-16 00:47N 38°21' W 008°50'2 8.1
2017-Oct-16 00:30N 38°22' W 008°53'4 8.1
2017-Oct-16 00:00N 38°23' W 008°58'4 7.5
2017-Oct-15 23:31N 38°24' W 009°02'4 7.6
2017-Oct-15 23:01N 38°26' W 009°06'0 0.6
2017-Oct-15 22:30N 38°26' W 009°07'  
2017-Oct-13 08:43N 38°26' W 009°07'1 2.9
2017-Oct-13 08:28N 38°26' W 009°06'4 8.4
2017-Oct-13 08:00N 38°26' W 009°01'4 5.3
2017-Oct-13 07:13N 38°25' W 008°56'0 0.3
2017-Oct-13 06:52N 38°25' W 008°55'0 0.3
2017-Oct-13 06:24N 38°25' W 008°55'0 0.2
2017-Oct-13 06:00N 38°25' W 008°55'0 0.2
2017-Oct-13 05:30N 38°25' W 008°55'2 3.8
2017-Oct-13 05:00N 38°25' W 008°58'4 7.8
2017-Oct-13 04:30N 38°26' W 009°02'3 6.9
2017-Oct-13 04:00N 38°26' W 009°07'0 0.0
2017-Oct-13 03:30N 38°26' W 009°07'0 0.0
2017-Oct-13 03:00N 38°26' W 009°07'0 0.0
2017-Oct-13 02:27N 38°26' W 009°07'0 0.0
2017-Oct-13 02:00N 38°26' W 009°07'0 0.0
2017-Oct-13 01:30N 38°26' W 009°07'0 0.0
2017-Oct-13 00:59N 38°26' W 009°07'0 0.0
2017-Oct-13 00:30N 38°26' W 009°07'3 5.0
2017-Oct-13 00:00N 38°25' W 009°10'7 1.6
2017-Oct-12 19:30N 38°29' W 009°18'4 8.2
2017-Oct-12 18:59N 38°25' W 009°14'4 7.8
2017-Oct-12 18:27N 38°25' W 009°09'2 5.1
2017-Oct-12 18:01N 38°26' W 009°07'0 0.0
2017-Oct-12 10:28N 38°26' W 009°07'0 0.0
2017-Oct-12 08:39N 38°26' W 009°07'0 0.9
2017-Oct-12 08:30N 38°26' W 009°07'4 8.5
2017-Oct-12 08:00N 38°24' W 009°02'4 8.6
2017-Oct-12 07:30N 38°22' W 008°57'5 8.6
2017-Oct-12 06:59N 38°20' W 008°52'3 5.1
2017-Oct-12 06:29N 38°18' W 008°50'0 0.4
2017-Oct-12 05:57N 38°18' W 008°50'0 0.0
2017-Oct-12 00:14N 38°18' W 008°50'1 4.1
2017-Oct-12 00:00N 38°19' W 008°51'1 1.3
2017-Oct-11 23:30N 38°19' W 008°50'0 0.5
2017-Oct-11 23:00N 38°19' W 008°50'0 0.5
2017-Oct-11 22:30N 38°19' W 008°50'2 4.0
2017-Oct-11 22:00N 38°17' W 008°50'2 3.8
2017-Oct-11 21:30N 38°19' W 008°50'4 7.6
2017-Oct-11 21:00N 38°20' W 008°55'8 8.1
2017-Oct-11 20:02N 38°24' W 009°03'0 8.0
2017-Oct-11 20:00N 38°24' W 009°03'3 6.4
2017-Oct-11 19:30N 38°26' W 009°07'2 0.1
2017-Oct-10 21:53N 38°26' W 009°04'2 6.6
2017-Oct-10 21:30N 38°26' W 009°07'0 0.1
2017-Oct-10 21:00N 38°26' W 009°07'  

Dump ship's entire track history